»·PEaware :: DLH446 KLAX-KDEN

DLH446 :: KLAX-KDEN

FLIGHT INFORMATION

Flight Status: Arrived
Operator:
Lufthansa
More flights by this operator :: More flights under this callsign
Pilot: Alfredo R. (12181)
Aircraft: Boeing 747-8
(B748)
More flights by this aircraft type
Origin: KLAX Los Angeles Intl
United States
Destination: KDEN Denver Intl
United States
More flights between these airports :: More routes between these airports
Route: +ORCKA2 LAS J146 DVC WOLLF CREDE3
File this flight plan on PilotEdge
Remarks:
Altitude:
(Current/Filed)
39,000ft
Speed:
(Current/Filed)
475kts
Departed: 07-Jan-18 02:53 PM
Arrived: 07-Jan-18 04:44 PM
Distance/Time
Traveled:
747nm/1:50
Distance/Time
To Go:
Arrived

Flight Plot

Page will automatically refresh every two minutes.

Flight plan parsing failed; only flown route is shown


Map Options




Map Legend


Flown Route
Filed Route
Departure Airport
Arrival Airport
Navaid (VOR, NDB)
Fix

Horizontal Profiles

Position Reports

Time Latitude Longitude Heading Altitude Ground
Speed
07-Jan-18 14:13 33.940916 -118.409288 259 131ft 0kts
07-Jan-18 14:14 33.940916 -118.409288 259 131ft 0kts
07-Jan-18 14:15 33.940916 -118.409288 259 131ft 0kts
07-Jan-18 14:16 33.940916 -118.409288 259 131ft 0kts
07-Jan-18 14:17 33.940916 -118.409288 259 131ft 0kts
07-Jan-18 14:18 33.940916 -118.409288 259 131ft 0kts
07-Jan-18 14:19 33.940916 -118.409288 259 131ft 0kts
07-Jan-18 14:20 33.940916 -118.409288 259 131ft 0kts
07-Jan-18 14:21 33.940916 -118.409288 259 131ft 0kts
07-Jan-18 14:22 33.940916 -118.409288 259 131ft 0kts
07-Jan-18 14:23 33.940916 -118.409288 259 131ft 0kts
07-Jan-18 14:24 33.940917 -118.409288 259 131ft 0kts
07-Jan-18 14:25 33.940917 -118.409288 259 131ft 0kts
07-Jan-18 14:26 33.940917 -118.409288 259 131ft 0kts
07-Jan-18 14:27 33.940917 -118.409288 259 131ft 0kts
07-Jan-18 14:28 33.940917 -118.409288 259 131ft 0kts
07-Jan-18 14:29 33.940917 -118.409288 259 131ft 0kts
07-Jan-18 14:30 33.940917 -118.409288 259 131ft 0kts
07-Jan-18 14:31 33.940917 -118.409288 259 131ft 0kts
07-Jan-18 14:32 33.940917 -118.409288 259 131ft 0kts
07-Jan-18 14:33 33.940917 -118.409288 259 131ft 0kts
07-Jan-18 14:34 33.940917 -118.409288 259 131ft 0kts
07-Jan-18 14:35 33.940917 -118.409288 259 131ft 0kts
07-Jan-18 14:36 33.940917 -118.409288 259 131ft 0kts
07-Jan-18 14:37 33.940922 -118.409251 260 131ft 2kts
07-Jan-18 14:38 33.941039 -118.408544 240 131ft 2kts
07-Jan-18 14:39 33.941552 -118.408265 170 130ft 2kts
07-Jan-18 14:40 33.941767 -118.408312 174 130ft 0kts
07-Jan-18 14:41 33.941767 -118.408312 174 130ft 0kts
07-Jan-18 14:42 33.941767 -118.408312 174 130ft 0kts
07-Jan-18 14:43 33.941764 -118.408312 174 130ft 0kts
07-Jan-18 14:44 33.941060 -118.408189 171 131ft 6kts
07-Jan-18 14:45 33.939845 -118.407990 172 133ft 0kts
07-Jan-18 14:46 33.939845 -118.407990 172 133ft 0kts
07-Jan-18 14:47 33.939845 -118.407990 172 133ft 0kts
07-Jan-18 14:48 33.939551 -118.407945 172 133ft 3kts
07-Jan-18 14:49 33.939089 -118.405205 82 130ft 17kts
07-Jan-18 14:50 33.939851 -118.397514 83 119ft 27kts
07-Jan-18 14:51 33.940622 -118.389279 83 110ft 26kts
07-Jan-18 14:52 33.941033 -118.383771 120 107ft 16kts
07-Jan-18 14:53 33.940704 -118.381045 92 107ft 0kts
07-Jan-18 14:54 33.940704 -118.381045 92 107ft 0kts
07-Jan-18 14:55 33.940704 -118.381045 92 107ft 0kts
07-Jan-18 14:56 33.940697 -118.380856 94 107ft 3kts
07-Jan-18 14:57 33.939744 -118.380965 261 107ft 11kts
07-Jan-18 14:58 33.939259 -118.385778 263 110ft 40kts
07-Jan-18 14:59 33.933895 -118.433107 261 1376ft 186kts
07-Jan-18 15:00 33.925893 -118.485876 243 2351ft 211kts
07-Jan-18 15:01 33.902713 -118.558772 278 4002ft 250kts
07-Jan-18 15:02 33.909936 -118.642985 263 6228ft 270kts
07-Jan-18 15:03 33.860981 -118.688892 154 8652ft 286kts
07-Jan-18 15:04 33.853262 -118.606237 53 10810ft 309kts
07-Jan-18 15:05 33.907691 -118.523465 56 11609ft 386kts
07-Jan-18 15:06 33.956417 -118.404138 63 13070ft 406kts
07-Jan-18 15:07 34.011822 -118.292350 56 14654ft 414kts
07-Jan-18 15:08 34.077699 -118.176011 56 17596ft 437kts
07-Jan-18 15:09 34.146954 -118.055222 56 20345ft 455kts
07-Jan-18 15:10 34.219195 -117.927394 56 22866ft 471kts
07-Jan-18 15:11 34.292863 -117.795490 55 24940ft 490kts
07-Jan-18 15:12 34.370127 -117.657831 53 26649ft 515kts
07-Jan-18 15:13 34.455565 -117.515545 51 28298ft 537kts
07-Jan-18 15:14 34.544711 -117.367356 51 29971ft 555kts
07-Jan-18 15:15 34.633494 -117.215913 51 32157ft 557kts
07-Jan-18 15:16 34.723154 -117.062671 50 34024ft 556kts
07-Jan-18 15:17 34.812733 -116.910418 50 35537ft 556kts
07-Jan-18 15:18 34.902495 -116.757212 49 36697ft 558kts
07-Jan-18 15:19 35.000516 -116.613827 39 37809ft 548kts
07-Jan-18 15:20 35.106804 -116.480433 39 38503ft 551kts
07-Jan-18 15:21 35.211862 -116.344534 41 39173ft 545kts
07-Jan-18 15:22 35.313410 -116.207429 41 39171ft 542kts
07-Jan-18 15:23 35.414526 -116.071370 41 39166ft 542kts
07-Jan-18 15:24 35.516167 -115.935656 41 39181ft 542kts
07-Jan-18 15:25 35.617178 -115.799561 41 39206ft 542kts
07-Jan-18 15:26 35.717372 -115.662673 41 39217ft 539kts
07-Jan-18 15:27 35.814393 -115.528345 41 39458ft 526kts
07-Jan-18 15:28 35.911303 -115.394351 42 40507ft 526kts
07-Jan-18 15:29 36.007349 -115.260242 43 41175ft 530kts
07-Jan-18 15:30 36.097833 -115.117910 58 41178ft 536kts
07-Jan-18 15:31 36.149288 -114.944737 70 41161ft 543kts
07-Jan-18 15:32 36.197935 -114.770059 64 41161ft 541kts
07-Jan-18 15:33 36.252393 -114.598960 64 41166ft 538kts
07-Jan-18 15:34 36.305103 -114.426975 65 41161ft 536kts
07-Jan-18 15:35 36.356753 -114.254472 66 41173ft 537kts
07-Jan-18 15:36 36.408039 -114.081926 65 41161ft 535kts
07-Jan-18 15:37 36.459632 -113.909212 65 41193ft 535kts
07-Jan-18 15:38 36.510870 -113.736539 65 41207ft 536kts
07-Jan-18 15:39 36.561906 -113.563014 64 41215ft 535kts
07-Jan-18 15:40 36.612586 -113.389916 65 41210ft 534kts
07-Jan-18 15:41 36.662820 -113.216129 65 41251ft 534kts
07-Jan-18 15:42 36.712593 -113.042739 65 41245ft 533kts
07-Jan-18 15:43 36.762506 -112.869021 65 41254ft 530kts
07-Jan-18 15:44 36.811713 -112.696527 65 41249ft 528kts
07-Jan-18 15:45 36.860679 -112.523948 65 41254ft 528kts
07-Jan-18 15:46 36.909307 -112.351429 65 41253ft 528kts
07-Jan-18 15:47 36.956895 -112.179016 65 41241ft 526kts
07-Jan-18 15:48 37.004779 -112.006059 65 41237ft 527kts
07-Jan-18 15:49 37.052566 -111.833528 65 41242ft 527kts
07-Jan-18 15:50 37.099967 -111.661251 65 41244ft 522kts
07-Jan-18 15:51 37.147500 -111.491154 65 41251ft 523kts
07-Jan-18 15:52 37.194430 -111.319098 66 41243ft 524kts
07-Jan-18 15:53 37.239601 -111.147848 66 41247ft 520kts
07-Jan-18 15:54 37.285298 -110.978153 67 41241ft 517kts
07-Jan-18 15:55 37.330807 -110.807511 67 41249ft 518kts
07-Jan-18 15:56 37.375841 -110.636540 67 41260ft 514kts
07-Jan-18 15:57 37.420295 -110.466830 67 41333ft 515kts
07-Jan-18 15:58 37.464650 -110.296250 68 41322ft 515kts
07-Jan-18 15:59 37.508284 -110.125721 68 41326ft 513kts
07-Jan-18 16:00 37.551727 -109.956271 67 41327ft 518kts
07-Jan-18 16:01 37.595673 -109.784291 68 41333ft 517kts
07-Jan-18 16:02 37.639368 -109.611725 67 41332ft 516kts
07-Jan-18 16:03 37.682149 -109.441698 67 41333ft 516kts
07-Jan-18 16:04 37.725116 -109.269259 68 41326ft 516kts
07-Jan-18 16:05 37.766875 -109.099413 68 41325ft 513kts
07-Jan-18 16:06 37.809783 -108.928923 64 41323ft 511kts
07-Jan-18 16:07 37.878469 -108.774595 49 41421ft 506kts
07-Jan-18 16:08 37.956990 -108.627348 51 41440ft 507kts
07-Jan-18 16:09 38.031186 -108.475745 52 41438ft 508kts
07-Jan-18 16:10 38.103041 -108.325505 53 41433ft 509kts
07-Jan-18 16:11 38.176469 -108.173577 53 41366ft 506kts
07-Jan-18 16:12 38.248585 -108.023800 53 41324ft 507kts
07-Jan-18 16:13 38.321475 -107.870658 53 41333ft 507kts
07-Jan-18 16:14 38.390311 -107.725312 53 41337ft 507kts
07-Jan-18 16:15 38.459441 -107.578260 53 41330ft 506kts
07-Jan-18 16:16 38.528061 -107.426537 54 41331ft 502kts
07-Jan-18 16:17 38.595515 -107.274661 55 41008ft 504kts
07-Jan-18 16:18 38.663176 -107.120958 54 39107ft 486kts
07-Jan-18 16:19 38.727952 -106.974740 53 37086ft 470kts
07-Jan-18 16:20 38.791783 -106.830877 54 35200ft 470kts
07-Jan-18 16:21 38.855676 -106.685733 54 33402ft 466kts
07-Jan-18 16:22 38.920519 -106.543692 53 31662ft 463kts
07-Jan-18 16:23 38.984722 -106.406040 53 30126ft 452kts
07-Jan-18 16:24 39.047758 -106.267728 54 28600ft 446kts
07-Jan-18 16:25 39.107187 -106.135633 53 27265ft 427kts
07-Jan-18 16:26 39.163760 -106.009508 54 26037ft 400kts
07-Jan-18 16:27 39.218220 -105.886606 54 24852ft 396kts
07-Jan-18 16:28 39.269846 -105.768592 53 23612ft 376kts
07-Jan-18 16:29 39.320914 -105.651893 53 22404ft 368kts
07-Jan-18 16:30 39.368223 -105.543546 52 21142ft 335kts
07-Jan-18 16:31 39.415592 -105.442374 48 19941ft 328kts
07-Jan-18 16:32 39.466222 -105.347511 49 18769ft 320kts
07-Jan-18 16:33 39.514838 -105.254072 49 17750ft 317kts
07-Jan-18 16:34 39.563035 -105.162225 48 16741ft 317kts
07-Jan-18 16:35 39.610242 -105.071610 49 15730ft 311kts
07-Jan-18 16:36 39.657976 -104.980203 49 14693ft 303kts
07-Jan-18 16:37 39.699632 -104.898982 49 13577ft 251kts
07-Jan-18 16:38 39.750339 -104.850854 359 12713ft 233kts
07-Jan-18 16:39 39.814667 -104.846171 359 11780ft 232kts
07-Jan-18 16:40 39.878957 -104.841855 359 10989ft 228kts
07-Jan-18 16:41 39.942618 -104.837692 359 10979ft 225kts
07-Jan-18 16:42 40.005723 -104.833571 359 10485ft 230kts
07-Jan-18 16:43 40.067190 -104.829910 0 9586ft 227kts
07-Jan-18 16:44 40.091039 -104.763789 87 9054ft 227kts
07-Jan-18 16:45 40.059644 -104.699267 151 8860ft 237kts
07-Jan-18 16:46 40.002406 -104.695102 178 7819ft 193kts
07-Jan-18 16:47 39.954160 -104.695522 176 6906ft 168kts
07-Jan-18 16:48 39.906465 -104.695845 177 5662ft 176kts
07-Jan-18 16:49 39.867660 -104.696273 179 5284ft 73kts
07-Jan-18 16:50 39.856054 -104.695760 105 5285ft 0kts
07-Jan-18 16:51 39.856010 -104.695558 104 5284ft 1kts
07-Jan-18 16:52 39.855607 -104.694514 156 5285ft 2kts
07-Jan-18 16:53 39.854687 -104.694385 179 5288ft 7kts
07-Jan-18 16:54 39.852077 -104.694053 120 5298ft 9kts
07-Jan-18 16:55 39.851949 -104.688349 89 5300ft 15kts
07-Jan-18 16:56 39.852070 -104.685319 88 5316ft 4kts
07-Jan-18 16:57 39.852151 -104.683109 76 5332ft 10kts
07-Jan-18 16:58 39.852766 -104.678418 88 5366ft 11kts
07-Jan-18 16:59 39.852748 -104.675139 89 5390ft 7kts
07-Jan-18 17:00 39.852770 -104.670978 89 5408ft 17kts
07-Jan-18 17:01 39.854524 -104.666518 336 5426ft 14kts
07-Jan-18 17:02 39.855073 -104.672473 269 5411ft 5kts
07-Jan-18 17:03 39.854582 -104.673056 189 5406ft 0kts

Navigation Log

Ident Type
Flight plan parsing failed, navigation log unavailable